Time;durP1;ratioP1;P1;durP2;ratioP2;P2;SDS_P1;SDS_P2;PMS_P1;PMS_P2;Temp;Humidity;BMP_temperature;BMP_pressure;BME280_temperature;BME280_humidity;BME280_pressure;Samples;Min_cycle;Max_cycle;Signal;HPM_P1;HPM_P2
2022/08/10 00:00:21;;;;;;;;;12.25;11.50;;;;;26.71;37.93;99301.94;5053975;28;45372;-54
2022/08/10 00:02:51;;;;;;;;;12.00;11.00;;;;;26.70;37.80;99306.50;5055279;28;45515;-49
2022/08/10 00:05:17;;;;;;;;;13.25;11.00;;;;;26.71;38.02;99302.78;5055346;28;45307;-50
2022/08/10 00:07:43;;;;;;;;;11.75;11.75;;;;;26.72;38.02;99301.78;5054632;28;45604;-51
2022/08/10 00:10:09;;;;;;;;;15.00;14.00;;;;;26.71;38.18;99305.50;5055037;28;45318;-51
2022/08/10 00:12:35;;;;;;;;;10.75;10.75;;;;;26.69;38.37;99303.94;5055314;28;45589;-49
2022/08/10 00:15:00;;;;;;;;;12.50;11.75;;;;;26.70;38.15;99314.59;5050709;28;45554;-49
2022/08/10 00:17:26;;;;;;;;;9.00;9.00;;;;;26.66;37.98;99305.09;5055545;28;46367;-53
2022/08/10 00:19:51;;;;;;;;;9.50;9.50;;;;;26.64;37.43;99306.31;5055573;28;45386;-55
2022/08/10 00:22:17;;;;;;;;;9.75;9.75;;;;;26.59;37.48;99304.06;5056784;28;45539;-55
2022/08/10 00:24:43;;;;;;;;;12.50;12.00;;;;;26.55;37.93;99305.38;5051274;28;45248;-56
2022/08/10 00:27:08;;;;;;;;;12.00;12.00;;;;;26.50;37.83;99306.84;5056917;28;45564;-56
2022/08/10 00:29:34;;;;;;;;;10.50;10.50;;;;;26.48;37.62;99308.91;5049542;28;45497;-56
2022/08/10 00:31:59;;;;;;;;;11.00;10.00;;;;;26.45;37.91;99303.78;5056004;28;45417;-56
2022/08/10 00:34:29;;;;;;;;;14.75;14.25;;;;;26.44;37.90;99310.22;5045134;28;45365;-56
2022/08/10 00:36:55;;;;;;;;;15.00;14.25;;;;;26.41;38.58;99314.94;5056441;28;46335;-56
2022/08/10 00:39:21;;;;;;;;;15.50;14.75;;;;;26.38;38.45;99312.53;5052603;28;45585;-56
2022/08/10 00:41:47;;;;;;;;;14.75;14.75;;;;;26.35;38.92;99314.69;5052939;28;45408;-55
2022/08/10 00:44:12;;;;;;;;;13.25;12.75;;;;;26.32;38.94;99318.56;5053553;28;45451;-56
2022/08/10 00:46:38;;;;;;;;;13.50;13.50;;;;;26.29;39.00;99318.88;5056164;28;45501;-55
2022/08/10 00:49:03;;;;;;;;;12.75;11.75;;;;;26.28;38.84;99316.31;5053122;28;45360;-56
2022/08/10 00:51:29;;;;;;;;;14.25;14.25;;;;;26.23;38.58;99316.75;5045594;28;45515;-56
2022/08/10 00:53:54;;;;;;;;;16.25;15.50;;;;;26.17;38.28;99314.69;5051732;28;45633;-55
2022/08/10 00:56:20;;;;;;;;;10.75;9.75;;;;;26.11;38.77;99315.31;5055842;28;45821;-55
2022/08/10 00:58:46;;;;;;;;;14.50;14.50;;;;;26.06;39.08;99315.78;5054741;28;45401;-56
2022/08/10 01:01:11;;;;;;;;;14.50;14.00;;;;;26.02;38.94;99308.13;5056818;28;45485;-56
2022/08/10 01:03:36;;;;;;;;;14.50;14.50;;;;;26.00;38.56;99316.38;5053530;28;45575;-55
2022/08/10 01:06:14;;;;;;;;;13.75;12.25;;;;;26.00;38.68;99315.53;5055390;28;46050;-55
2022/08/10 01:08:53;;;;;;;;;15.75;13.00;;;;;26.00;38.70;99307.44;5052453;28;45487;-55
2022/08/10 01:11:30;;;;;;;;;12.00;12.00;;;;;25.99;38.84;99314.69;5053876;28;45350;-55
2022/08/10 01:14:22;;;;;;;;;12.50;11.00;;;;;25.99;38.98;99319.25;5046802;28;45496;-54
2022/08/10 01:17:14;;;;;;;;;12.25;12.25;;;;;25.97;38.93;99323.97;5052181;28;45648;-54
2022/08/10 01:20:07;;;;;;;;;13.00;13.00;;;;;25.96;38.89;99317.72;5048724;28;45475;-54
2022/08/10 01:22:57;;;;;;;;;11.50;11.50;;;;;25.92;39.32;99319.03;5041730;28;45676;-55
2022/08/10 01:25:40;;;;;;;;;13.25;13.00;;;;;25.91;39.40;99322.72;5052735;28;45432;-55
2022/08/10 01:28:35;;;;;;;;;13.00;13.00;;;;;25.90;39.13;99322.88;5051894;28;46429;-55
2022/08/10 01:31:02;;;;;;;;;15.25;15.00;;;;;25.86;39.59;99319.63;5049746;28;45457;-56
2022/08/10 01:33:40;;;;;;;;;13.75;13.25;;;;;25.84;39.68;99316.22;5052288;28;45387;-55
2022/08/10 01:36:13;;;;;;;;;13.75;13.75;;;;;25.84;39.74;99309.97;5053609;28;45451;-56
2022/08/10 01:38:46;;;;;;;;;14.25;13.00;;;;;25.82;39.94;99320.94;5051456;28;45466;-55
2022/08/10 01:41:21;;;;;;;;;14.75;14.00;;;;;25.82;40.23;99320.09;5055645;28;45511;-54
2022/08/10 01:44:04;;;;;;;;;13.25;12.25;;;;;25.80;40.10;99319.41;5050844;28;45484;-55
2022/08/10 01:46:32;;;;;;;;;13.25;13.25;;;;;25.76;40.44;99316.16;5052398;28;45441;-57
2022/08/10 01:49:01;;;;;;;;;15.25;14.25;;;;;25.73;39.90;99319.16;5048988;28;45902;-55
2022/08/10 01:51:33;;;;;;;;;14.75;14.50;;;;;25.73;40.16;99324.56;5042144;28;45353;-55
2022/08/10 01:54:11;;;;;;;;;13.50;12.75;;;;;25.71;39.90;99323.88;5049754;28;45357;-53
2022/08/10 01:56:41;;;;;;;;;11.50;11.00;;;;;25.70;40.02;99324.88;5042236;28;45482;-56
2022/08/10 01:59:12;;;;;;;;;15.50;14.00;;;;;25.69;40.23;99325.88;5047807;28;45504;-55
2022/08/10 02:01:48;;;;;;;;;14.50;14.50;;;;;25.68;40.20;99319.63;5046474;28;45530;-56
2022/08/10 02:04:15;;;;;;;;;10.00;10.00;;;;;25.67;40.60;99323.31;5045438;28;45503;-57
2022/08/10 02:06:46;;;;;;;;;12.75;12.00;;;;;25.66;40.64;99323.47;5050189;28;45486;-56
2022/08/10 02:09:21;;;;;;;;;11.50;11.50;;;;;25.65;40.35;99333.41;5048094;28;45517;-56
2022/08/10 02:11:50;;;;;;;;;15.00;14.25;;;;;25.64;40.49;99328.16;5053295;28;45368;-54
2022/08/10 02:14:17;;;;;;;;;12.25;11.75;;;;;25.60;40.36;99326.75;5053148;28;45531;-54
2022/08/10 02:16:44;;;;;;;;;16.50;15.00;;;;;25.57;40.28;99332.47;5055377;28;45361;-54
2022/08/10 02:19:14;;;;;;;;;13.00;12.25;;;;;25.52;40.12;99335.59;5052692;28;46276;-52
2022/08/10 02:21:45;;;;;;;;;14.00;13.75;;;;;25.46;40.16;99338.94;5055211;28;45384;-56
2022/08/10 02:24:13;;;;;;;;;11.75;11.75;;;;;25.43;40.22;99346.47;5048722;28;45313;-55
2022/08/10 02:26:43;;;;;;;;;12.00;12.00;;;;;25.36;40.14;99346.19;5054395;28;45432;-54
2022/08/10 02:29:12;;;;;;;;;16.00;13.75;;;;;25.31;40.46;99348.50;5047207;28;45491;-55
2022/08/10 02:31:40;;;;;;;;;11.25;11.00;;;;;25.26;40.51;99351.66;5052750;28;45556;-55
2022/08/10 02:34:09;;;;;;;;;12.00;12.00;;;;;25.22;40.49;99352.94;5045110;28;45491;-55
2022/08/10 02:36:40;;;;;;;;;11.25;11.25;;;;;25.19;40.51;99349.69;5050885;28;45509;-54
2022/08/10 02:39:06;;;;;;;;;10.50;10.50;;;;;25.16;40.66;99353.53;5048494;28;45472;-56
2022/08/10 02:42:00;;;;;;;;;15.00;14.00;;;;;25.14;41.22;99362.78;5047815;28;45450;-55
2022/08/10 02:44:27;;;;;;;;;14.00;13.75;;;;;25.12;41.12;99357.56;5049507;28;45589;-55
2022/08/10 02:47:13;;;;;;;;;16.00;12.75;;;;;25.08;41.47;99358.00;5051508;28;45322;-55
2022/08/10 02:49:42;;;;;;;;;13.00;13.00;;;;;25.07;41.00;99358.97;5050089;28;45420;-55
2022/08/10 02:52:18;;;;;;;;;14.50;14.25;;;;;25.03;41.79;99355.72;5044759;28;45415;-55
2022/08/10 02:55:08;;;;;;;;;12.50;12.25;;;;;24.99;41.55;99357.00;5048583;28;45509;-55
2022/08/10 02:57:39;;;;;;;;;14.75;13.50;;;;;24.98;41.62;99358.84;5043732;28;45474;-55
2022/08/10 03:00:06;;;;;;;;;14.00;13.00;;;;;24.96;42.03;99358.19;5045363;28;45416;-55
2022/08/10 03:02:42;;;;;;;;;13.75;12.50;;;;;24.96;41.73;99360.03;5053478;28;45494;-55
2022/08/10 03:05:11;;;;;;;;;14.00;14.00;;;;;24.94;42.00;99362.00;5052693;28;45353;-54
2022/08/10 03:07:44;;;;;;;;;13.75;12.75;;;;;24.91;41.89;99360.44;5053012;28;45381;-56
2022/08/10 03:10:16;;;;;;;;;13.75;13.75;;;;;24.88;41.87;99366.09;5049975;28;47411;-55
2022/08/10 03:12:43;;;;;;;;;14.00;14.00;;;;;24.85;41.86;99363.69;5052160;28;45416;-56
2022/08/10 03:15:11;;;;;;;;;12.75;12.50;;;;;24.84;41.82;99358.44;5047282;28;45356;-54
2022/08/10 03:17:39;;;;;;;;;13.50;12.50;;;;;24.82;42.14;99361.28;5052893;28;45553;-54
2022/08/10 03:20:06;;;;;;;;;13.75;13.25;;;;;24.84;41.83;99371.94;5048643;28;46481;-55
2022/08/10 03:22:33;;;;;;;;;15.25;12.25;;;;;24.83;42.08;99368.38;5053925;28;45440;-55
2022/08/10 03:24:59;;;;;;;;;15.00;14.00;;;;;24.82;42.01;99363.97;5046321;28;45498;-56
2022/08/10 03:27:25;;;;;;;;;14.00;14.00;;;;;24.82;42.19;99357.72;5053451;28;45384;-56
2022/08/10 03:29:51;;;;;;;;;14.00;14.00;;;;;24.81;42.37;99359.59;5048552;28;45366;-55
2022/08/10 03:32:18;;;;;;;;;13.75;13.75;;;;;24.80;42.46;99360.56;5053953;28;45461;-54
2022/08/10 03:34:43;;;;;;;;;16.50;16.50;;;;;24.79;42.51;99360.75;5044404;28;45543;-53
2022/08/10 03:37:09;;;;;;;;;21.00;18.50;;;;;24.76;42.31;99369.97;5051334;28;45450;-53
2022/08/10 03:39:34;;;;;;;;;14.25;13.50;;;;;24.75;42.44;99364.72;5048071;28;45574;-55
2022/08/10 03:42:04;;;;;;;;;12.00;11.00;;;;;24.71;42.64;99364.16;5045778;28;45401;-56
2022/08/10 03:44:32;;;;;;;;;12.25;12.25;;;;;24.69;42.58;99368.84;5047539;28;45377;-54
2022/08/10 03:47:03;;;;;;;;;11.50;11.50;;;;;24.68;42.31;99375.22;5053540;28;45600;-53
2022/08/10 03:49:30;;;;;;;;;12.00;12.00;;;;;24.65;42.66;99368.28;5046823;28;46279;-58
2022/08/10 03:51:57;;;;;;;;;13.75;13.25;;;;;24.64;42.46;99369.28;5046175;28;45426;-58
2022/08/10 03:54:23;;;;;;;;;15.75;14.00;;;;;24.64;42.51;99365.72;5047611;28;45370;-58
2022/08/10 03:56:50;;;;;;;;;14.25;14.00;;;;;24.61;42.29;99374.13;5043769;28;45433;-58
2022/08/10 03:59:16;;;;;;;;;12.00;12.00;;;;;24.58;42.17;99375.25;5046059;28;45397;-58
2022/08/10 04:01:43;;;;;;;;;14.00;14.00;;;;;24.54;42.13;99376.53;5053203;28;45474;-56
2022/08/10 04:04:08;;;;;;;;;13.50;12.25;;;;;24.53;42.07;99376.66;5046311;28;45329;-56
2022/08/10 04:06:34;;;;;;;;;13.25;11.75;;;;;24.51;42.09;99382.19;5052755;28;45558;-56
2022/08/10 04:09:01;;;;;;;;;11.00;10.75;;;;;24.47;41.81;99378.09;5048244;28;46385;-55
2022/08/10 04:11:26;;;;;;;;;13.75;13.00;;;;;24.43;41.91;99375.84;5053374;28;45460;-56
2022/08/10 04:13:52;;;;;;;;;11.75;11.25;;;;;24.38;42.20;99373.56;5047771;28;45737;-56
2022/08/10 04:16:17;;;;;;;;;12.00;10.75;;;;;24.37;42.15;99369.16;5053704;28;45531;-56
2022/08/10 04:18:42;;;;;;;;;12.00;12.00;;;;;24.37;42.48;99376.41;5051786;28;45384;-56
2022/08/10 04:21:13;;;;;;;;;14.00;14.00;;;;;24.34;42.90;99381.09;5053475;28;45570;-56
2022/08/10 04:23:44;;;;;;;;;18.00;18.00;;;;;24.33;42.50;99375.81;5047567;28;45194;-56
2022/08/10 04:26:11;;;;;;;;;18.75;15.25;;;;;24.30;42.96;99381.50;5050312;28;45516;-55
2022/08/10 04:28:38;;;;;;;;;17.25;15.50;;;;;24.31;43.12;99380.50;5050777;28;46236;-56
2022/08/10 04:31:06;;;;;;;;;15.50;14.75;;;;;24.30;43.12;99381.50;5049847;28;45378;-56
2022/08/10 04:33:33;;;;;;;;;15.25;12.75;;;;;24.28;43.44;99383.50;5049934;28;45458;-56
2022/08/10 04:36:02;;;;;;;;;16.25;15.25;;;;;24.26;43.28;99382.81;5051251;28;45577;-55
2022/08/10 04:38:30;;;;;;;;;16.00;13.75;;;;;24.25;43.58;99386.47;5050234;28;46733;-56
2022/08/10 04:40:55;;;;;;;;;16.25;16.00;;;;;24.23;43.40;99391.13;5052587;28;45421;-56
2022/08/10 04:43:21;;;;;;;;;15.00;14.50;;;;;24.22;43.21;99395.66;5051975;28;45417;-57
2022/08/10 04:45:46;;;;;;;;;13.00;13.00;;;;;24.21;43.23;99398.50;5053452;28;45551;-56
2022/08/10 04:48:12;;;;;;;;;11.50;11.25;;;;;24.19;43.04;99395.09;5051532;28;46270;-55
2022/08/10 04:50:37;;;;;;;;;12.75;12.25;;;;;24.16;42.52;99401.59;5050414;28;45441;-54
2022/08/10 04:53:03;;;;;;;;;12.50;12.50;;;;;24.15;42.46;99401.75;5053251;28;45541;-56
2022/08/10 04:55:29;;;;;;;;;12.50;12.00;;;;;24.12;42.54;99400.22;5048863;28;45661;-54
2022/08/10 04:57:54;;;;;;;;;11.00;11.00;;;;;24.10;42.90;99402.19;5053896;28;45563;-55
2022/08/10 05:00:19;;;;;;;;;11.75;11.75;;;;;24.10;42.98;99404.88;5055440;28;45494;-55
2022/08/10 05:02:45;;;;;;;;;15.00;13.75;;;;;24.10;43.20;99412.97;5055072;28;45421;-55
2022/08/10 05:05:10;;;;;;;;;14.25;13.25;;;;;24.10;42.94;99418.34;5055399;28;45520;-56
2022/08/10 05:07:36;;;;;;;;;14.50;12.50;;;;;24.10;43.25;99415.66;5054271;28;46192;-56
2022/08/10 05:10:02;;;;;;;;;14.75;13.75;;;;;24.10;42.83;99412.97;5050782;28;45456;-57
2022/08/10 05:12:28;;;;;;;;;10.75;10.75;;;;;24.10;43.03;99422.88;5055491;28;45535;-58
2022/08/10 05:14:53;;;;;;;;;15.00;13.75;;;;;24.10;43.33;99425.59;5046706;28;45358;-56
2022/08/10 05:17:19;;;;;;;;;12.75;11.50;;;;;24.07;43.38;99420.47;5055216;28;46191;-58
2022/08/10 05:19:44;;;;;;;;;17.25;13.00;;;;;24.02;43.16;99413.66;5053462;28;45548;-57
2022/08/10 05:22:10;;;;;;;;;13.50;13.50;;;;;24.01;43.13;99414.63;5054190;28;45488;-55
2022/08/10 05:24:36;;;;;;;;;13.50;12.50;;;;;23.99;43.23;99418.44;5053574;28;45345;-53
2022/08/10 05:27:01;;;;;;;;;12.00;12.00;;;;;23.98;43.77;99423.00;5054823;28;46545;-55
2022/08/10 05:29:27;;;;;;;;;12.00;12.00;;;;;24.00;43.67;99417.47;5050907;28;45517;-56
2022/08/10 05:31:53;;;;;;;;;13.25;13.25;;;;;24.02;43.65;99415.50;5052780;28;45408;-57
2022/08/10 05:34:25;;;;;;;;;14.25;14.25;;;;;24.02;43.86;99416.34;5052191;28;45474;-58
2022/08/10 05:36:51;;;;;;;;;15.75;13.75;;;;;24.01;43.98;99414.63;5052619;28;46557;-58
2022/08/10 05:39:17;;;;;;;;;12.00;12.00;;;;;24.01;43.53;99414.63;5050812;28;45447;-57
2022/08/10 05:41:44;;;;;;;;;12.75;12.25;;;;;23.99;43.33;99413.91;5050807;28;45493;-54
2022/08/10 05:44:10;;;;;;;;;13.00;12.50;;;;;23.99;43.47;99418.44;5050088;28;45478;-54
2022/08/10 05:46:35;;;;;;;;;10.00;9.50;;;;;23.98;43.52;99417.59;5052614;28;45685;-57
2022/08/10 05:49:00;;;;;;;;;13.00;12.50;;;;;23.98;43.50;99420.28;5046178;28;45376;-55
2022/08/10 05:51:27;;;;;;;;;19.00;14.00;;;;;23.99;43.41;99418.44;5044651;28;45555;-57
2022/08/10 05:53:53;;;;;;;;;13.75;13.75;;;;;23.99;43.27;99422.00;5053504;28;45572;-57
2022/08/10 05:56:18;;;;;;;;;12.00;12.00;;;;;24.02;43.51;99421.72;5053634;28;45691;-57
2022/08/10 05:58:44;;;;;;;;;16.50;13.25;;;;;24.02;43.41;99419.03;5053089;28;45487;-56
2022/08/10 06:01:13;;;;;;;;;11.75;11.00;;;;;24.04;43.38;99421.59;5053450;28;45428;-59
2022/08/10 06:03:47;;;;;;;;;14.00;12.00;;;;;24.05;43.17;99417.91;5053442;28;45527;-59
2022/08/10 06:06:16;;;;;;;;;11.75;11.75;;;;;24.09;43.46;99421.19;5054569;28;46360;-55
2022/08/10 06:08:45;;;;;;;;;12.25;11.75;;;;;24.13;42.78;99430.69;5051114;28;45427;-54
2022/08/10 06:11:14;;;;;;;;;12.50;11.50;;;;;24.15;42.99;99428.69;5051580;28;45439;-55
2022/08/10 06:16:28;;;;;;;;;16.00;12.25;;;;;24.20;43.01;99431.81;5053209;28;45648;-55
2022/08/10 06:18:56;;;;;;;;;11.25;11.25;;;;;24.20;43.03;99426.44;5052313;28;45475;-57
2022/08/10 06:21:22;;;;;;;;;13.00;13.00;;;;;24.22;42.97;99427.16;5054588;28;45455;-56
2022/08/10 06:23:48;;;;;;;;;11.00;11.00;;;;;24.25;42.65;99426.91;5051981;28;45536;-58
2022/08/10 06:26:14;;;;;;;;;13.00;13.00;;;;;24.28;42.93;99430.19;5053000;28;46425;-58
2022/08/10 06:29:06;;;;;;;;;12.50;11.00;;;;;24.32;43.19;99430.72;5053548;28;45409;-58
2022/08/10 06:31:37;;;;;;;;;13.00;11.25;;;;;24.33;42.96;99427.88;5054101;28;45523;-58
2022/08/10 06:34:04;;;;;;;;;11.50;10.00;;;;;24.35;42.78;99427.75;5053021;28;45583;-58
2022/08/10 06:36:30;;;;;;;;;12.25;11.50;;;;;24.36;43.21;99429.44;5054104;28;46295;-58
2022/08/10 06:38:56;;;;;;;;;12.50;12.50;;;;;24.40;43.18;99421.94;5052743;28;45456;-58
2022/08/10 06:41:27;;;;;;;;;12.25;11.25;;;;;24.43;43.04;99429.75;5053322;28;45432;-58
2022/08/10 06:44:00;;;;;;;;;10.25;10.25;;;;;24.45;42.98;99427.78;5053054;28;45671;-58
2022/08/10 06:46:28;;;;;;;;;12.75;12.75;;;;;24.47;42.74;99426.59;5054069;28;46242;-59
2022/08/10 06:48:58;;;;;;;;;13.00;12.00;;;;;24.50;42.65;99420.94;5050222;28;45593;-58
2022/08/10 06:51:29;;;;;;;;;12.25;12.25;;;;;24.55;42.49;99424.06;5054223;28;45472;-55
2022/08/10 06:53:58;;;;;;;;;12.75;12.00;;;;;24.58;43.04;99415.69;5045468;28;45377;-55
2022/08/10 06:56:32;;;;;;;;;12.25;12.25;;;;;24.62;43.04;99413.56;5046687;28;45670;-56
2022/08/10 06:59:12;;;;;;;;;11.00;11.00;;;;;24.65;42.83;99411.41;5051914;28;45286;-55
2022/08/10 07:01:42;;;;;;;;;6.25;6.00;;;;;24.68;42.51;99416.53;5054378;28;45475;-55
2022/08/10 07:04:14;;;;;;;;;12.75;11.25;;;;;24.74;42.29;99419.66;5050250;28;45450;-55
2022/08/10 07:06:43;;;;;;;;;11.75;10.50;;;;;24.80;42.04;99417.22;5054331;28;45410;-55
2022/08/10 07:09:11;;;;;;;;;13.00;12.00;;;;;24.85;41.77;99416.78;5047844;28;45441;-55
2022/08/10 07:11:38;;;;;;;;;11.75;11.75;;;;;24.90;41.96;99415.38;5053664;28;45459;-55
2022/08/10 07:14:05;;;;;;;;;10.00;10.00;;;;;24.95;41.55;99410.44;5047448;28;45581;-54
2022/08/10 07:16:33;;;;;;;;;13.25;11.50;;;;;25.02;41.99;99410.69;5053758;28;45600;-66
2022/08/10 07:19:00;;;;;;;;;11.75;11.75;;;;;25.07;41.57;99410.25;5051071;28;45486;-66
2022/08/10 07:21:29;;;;;;;;;13.25;12.00;;;;;25.13;41.89;99412.38;5053559;28;45458;-66
2022/08/10 07:23:55;;;;;;;;;10.50;10.50;;;;;25.19;41.66;99406.38;5047915;28;45573;-65
2022/08/10 07:26:22;;;;;;;;;13.75;13.00;;;;;25.24;41.59;99399.53;5039538;28;46379;-66
2022/08/10 07:28:49;;;;;;;;;13.00;11.00;;;;;25.30;41.32;99398.09;5053428;28;45303;-65
2022/08/10 07:31:17;;;;;;;;;9.75;8.25;;;;;25.36;41.69;99400.19;5050872;28;45444;-66
2022/08/10 07:33:43;;;;;;;;;11.50;11.50;;;;;25.43;41.26;99395.91;5047926;28;45941;-61
2022/08/10 07:36:10;;;;;;;;;15.50;13.50;;;;;25.50;41.12;99391.59;5049062;28;45624;-68
2022/08/10 07:38:37;;;;;;;;;13.75;13.25;;;;;25.53;41.38;99394.00;5052518;28;45488;-67
2022/08/10 07:41:06;;;;;;;;;13.00;10.50;;;;;25.59;41.21;99390.72;5049910;28;45400;-68
2022/08/10 07:43:35;;;;;;;;;9.50;9.50;;;;;25.66;41.26;99390.97;5052277;28;45407;-69
2022/08/10 07:46:03;;;;;;;;;13.25;12.00;;;;;25.73;41.41;99390.25;5053391;28;46462;-70
2022/08/10 07:48:34;;;;;;;;;12.00;11.75;;;;;25.80;41.25;99387.78;5053194;28;45636;-72
2022/08/10 07:51:01;;;;;;;;;11.00;11.00;;;;;25.85;41.12;99385.47;5053035;27;45405;-70
2022/08/10 07:53:32;;;;;;;;;11.00;11.00;;;;;25.91;41.13;99379.47;5052468;28;45511;-72
2022/08/10 07:56:00;;;;;;;;;9.00;8.00;;;;;25.99;41.08;99379.53;5050829;28;46551;-71
2022/08/10 07:58:40;;;;;;;;;8.25;8.25;;;;;26.06;40.90;99372.53;5050296;28;45460;-69
2022/08/10 08:01:05;;;;;;;;;10.50;10.50;;;;;26.14;40.84;99376.31;5052504;28;45451;-68
2022/08/10 08:03:32;;;;;;;;;10.25;10.25;;;;;26.20;40.55;99372.97;5053458;28;45464;-70
2022/08/10 08:06:00;;;;;;;;;13.25;12.00;;;;;26.27;40.30;99376.78;5052250;28;46745;-71
2022/08/10 08:08:29;;;;;;;;;10.25;10.25;;;;;26.33;40.10;99371.63;5050696;28;45560;-70
2022/08/10 08:10:57;;;;;;;;;13.00;12.25;;;;;26.41;40.15;99370.84;5050910;28;45461;-70
2022/08/10 08:13:23;;;;;;;;;12.00;12.00;;;;;26.48;39.92;99371.09;5056181;28;45424;-71
2022/08/10 08:15:52;;;;;;;;;11.25;11.00;;;;;26.53;39.69;99366.88;5053925;28;46244;-72
2022/08/10 08:18:21;;;;;;;;;9.50;8.50;;;;;26.59;39.47;99362.72;5053894;28;45567;-72
2022/08/10 08:20:48;;;;;;;;;15.00;15.00;;;;;26.66;39.51;99364.63;5052751;28;45460;-72
2022/08/10 08:23:16;;;;;;;;;12.50;9.25;;;;;26.75;39.20;99368.25;5053082;28;45439;-73
2022/08/10 08:25:44;;;;;;;;;13.00;12.50;;;;;26.82;39.13;99365.72;5040090;28;45526;-66
2022/08/10 08:28:10;;;;;;;;;12.25;11.50;;;;;26.87;38.46;99361.56;5043800;28;45480;-66
2022/08/10 08:30:37;;;;;;;;;8.75;8.75;;;;;26.92;38.59;99359.22;5043070;28;45512;-66
2022/08/10 08:33:05;;;;;;;;;13.00;11.00;;;;;26.98;39.14;99363.19;5056148;28;45395;-66
2022/08/10 08:35:31;;;;;;;;;12.00;11.00;;;;;27.06;39.09;99358.66;5054634;28;45652;-65
2022/08/10 08:37:59;;;;;;;;;10.00;10.00;;;;;27.14;38.83;99362.44;5053224;28;45617;-70
2022/08/10 08:40:36;;;;;;;;;9.75;9.75;;;;;27.21;38.43;99350.78;5048404;28;45562;-62
2022/08/10 08:43:38;;;;;;;;;9.75;8.50;;;;;27.28;37.92;99351.84;5053015;28;45430;-65
2022/08/10 08:46:59;;;;;;;;;11.00;11.00;;;;;27.37;37.49;99352.72;5041996;28;45426;-65
2022/08/10 08:49:25;;;;;;;;;10.00;10.00;;;;;27.44;37.63;99353.78;5032349;28;45451;-66
2022/08/10 08:52:28;;;;;;;;;14.00;13.25;;;;;27.50;37.23;99344.97;5052362;28;45512;-66
2022/08/10 08:55:15;;;;;;;;;9.25;9.25;;;;;27.57;37.63;99342.50;5052238;28;46293;-66
2022/08/10 08:58:02;;;;;;;;;10.00;10.00;;;;;27.63;37.54;99347.28;5051206;28;45704;-66
2022/08/10 09:00:40;;;;;;;;;9.40;9.40;;;;;27.71;37.44;99347.28;5054066;28;45444;-65
2022/08/10 09:03:24;;;;;;;;;10.50;10.25;;;;;27.76;37.43;99340.38;5052223;28;45529;-66
2022/08/10 09:05:58;;;;;;;;;10.25;10.25;;;;;27.82;37.33;99343.44;5049086;28;45455;-65
2022/08/10 09:08:48;;;;;;;;;14.50;14.50;;;;;27.89;37.02;99345.31;5049290;28;46841;-65
2022/08/10 09:11:41;;;;;;;;;10.00;10.00;;;;;27.95;37.36;99350.06;5055103;28;45392;-66
2022/08/10 09:14:28;;;;;;;;;10.00;10.00;;;;;28.04;37.25;99351.75;5055936;28;45479;-66
2022/08/10 09:17:16;;;;;;;;;11.50;11.25;;;;;28.08;36.59;99347.72;5056037;28;45468;-66
2022/08/10 09:20:19;;;;;;;;;9.75;9.75;;;;;28.13;36.65;99345.34;5052530;27;45571;-65
2022/08/10 09:22:58;;;;;;;;;12.75;11.00;;;;;28.14;36.42;99340.78;5046273;28;45418;-66
2022/08/10 09:25:33;;;;;;;;;8.25;8.25;;;;;28.16;36.98;99336.00;5046300;28;45477;-66
2022/08/10 09:28:03;;;;;;;;;12.50;10.75;;;;;28.21;36.71;99332.84;5050888;28;45396;-66
2022/08/10 09:30:45;;;;;;;;;10.25;10.25;;;;;28.27;36.94;99330.31;5054668;28;46524;-66
2022/08/10 09:33:14;;;;;;;;;10.75;10.25;;;;;28.34;37.15;99333.16;5050623;28;45557;-66
2022/08/10 09:35:54;;;;;;;;;12.75;10.75;;;;;28.43;36.90;99326.75;5052659;28;45339;-74
2022/08/10 09:38:41;;;;;;;;;12.25;10.75;;;;;28.48;36.58;99318.94;5048252;28;45565;-66
2022/08/10 09:41:31;;;;;;;;;15.25;14.75;;;;;28.56;36.63;99318.94;5042399;28;47307;-66
2022/08/10 09:44:12;;;;;;;;;12.50;12.25;;;;;28.65;36.55;99315.19;5055184;28;45416;-66
2022/08/10 09:46:58;;;;;;;;;10.00;10.00;;;;;28.75;36.32;99309.56;5055270;28;45440;-66
2022/08/10 09:49:37;;;;;;;;;8.75;7.75;;;;;28.81;36.15;99303.50;5044435;28;45387;-67
2022/08/10 09:52:20;;;;;;;;;10.50;10.50;;;;;28.87;35.91;99304.66;5049159;28;47244;-66
2022/08/10 09:55:07;;;;;;;;;12.50;11.75;;;;;28.93;36.20;99302.09;5046121;28;45442;-66
2022/08/10 09:58:09;;;;;;;;;10.00;10.00;;;;;28.96;36.04;99300.91;5052113;28;45351;-66
2022/08/10 10:00:45;;;;;;;;;11.50;8.75;;;;;28.98;35.75;99298.88;5051989;28;45384;-66
2022/08/10 10:03:23;;;;;;;;;12.00;11.00;;;;;29.00;35.97;99304.94;5051173;28;46504;-66
2022/08/10 10:06:04;;;;;;;;;11.00;11.00;;;;;29.03;35.50;99297.31;5046857;28;45704;-66
2022/08/10 10:08:51;;;;;;;;;11.75;11.75;;;;;29.09;35.94;99293.06;5046309;28;45387;-66
2022/08/10 10:11:23;;;;;;;;;7.50;7.50;;;;;29.15;35.37;99295.06;5052199;28;45381;-66
2022/08/10 10:14:23;;;;;;;;;9.25;9.25;;;;;29.23;35.48;99292.31;5051829;28;46605;-66
2022/08/10 10:17:04;;;;;;;;;13.00;11.75;;;;;29.31;34.45;99286.84;5048962;28;45411;-65
2022/08/10 10:19:57;;;;;;;;;10.25;10.25;;;;;29.35;34.58;99279.19;5047459;28;45306;-66
2022/08/10 10:22:31;;;;;;;;;11.50;11.50;;;;;29.37;34.34;99282.56;5054564;28;45401;-66
2022/08/10 10:25:13;;;;;;;;;9.75;8.50;;;;;29.41;34.16;99273.91;5044413;28;46267;-66
2022/08/10 10:27:46;;;;;;;;;12.75;12.75;;;;;29.47;34.42;99265.06;5039320;28;45499;-66
2022/08/10 10:30:13;;;;;;;;;13.75;12.00;;;;;29.51;33.87;99260.09;5049194;28;45369;-66
2022/08/10 10:33:08;;;;;;;;;11.50;11.50;;;;;29.57;33.96;99263.97;5050479;28;45415;-66
2022/08/10 10:35:54;;;;;;;;;10.25;10.25;;;;;29.63;33.42;99268.72;5050352;28;45462;-66
2022/08/10 10:38:25;;;;;;;;;10.50;10.00;;;;;29.66;32.72;99262.94;5043445;28;45548;-66
2022/08/10 10:41:10;;;;;;;;;13.50;10.75;;;;;29.72;33.10;99254.88;5053793;28;45293;-66
2022/08/10 10:44:01;;;;;;;;;10.25;10.25;;;;;29.79;33.03;99255.00;5045826;28;45361;-66
2022/08/10 10:46:46;;;;;;;;;10.00;10.00;;;;;29.89;32.31;99252.88;5050729;28;47202;-66
2022/08/10 10:49:21;;;;;;;;;11.50;10.00;;;;;29.98;32.41;99251.84;5049927;28;45509;-66
2022/08/10 10:51:56;;;;;;;;;11.25;10.50;;;;;30.05;32.38;99250.06;5047210;28;45391;-65
2022/08/10 10:54:54;;;;;;;;;12.50;11.75;;;;;30.16;31.82;99254.25;5045991;28;45510;-65
2022/08/10 10:58:01;;;;;;;;;9.25;9.25;;;;;30.29;30.81;99243.56;5043447;28;46501;-65
2022/08/10 11:00:38;;;;;;;;;10.00;10.00;;;;;30.38;31.14;99239.72;5034685;28;45438;-65
2022/08/10 11:03:21;;;;;;;;;9.75;8.50;;;;;30.46;31.10;99234.22;5048019;28;45592;-65
2022/08/10 11:06:31;;;;;;;;;8.75;8.75;;;;;30.59;31.05;99225.44;5041358;28;45285;-65
2022/08/10 11:09:01;;;;;;;;;11.00;11.00;;;;;30.73;30.86;99221.03;5048124;28;45684;-66
2022/08/10 11:11:33;;;;;;;;;10.00;9.00;;;;;30.84;31.15;99223.25;5053221;28;45299;-65
2022/08/10 11:14:15;;;;;;;;;12.00;12.00;;;;;30.92;30.55;99223.19;5051831;28;45460;-55
2022/08/10 11:16:58;;;;;;;;;11.50;10.75;;;;;31.02;30.44;99217.44;5051149;28;45752;-55
2022/08/10 11:19:29;;;;;;;;;10.75;10.75;;;;;31.07;30.09;99212.25;5044373;28;45456;-54
2022/08/10 11:22:20;;;;;;;;;12.00;12.00;;;;;31.13;29.54;99204.22;5053288;28;45440;-53
2022/08/10 11:25:10;;;;;;;;;10.50;10.50;;;;;31.19;29.76;99203.44;5044292;28;45455;-54
2022/08/10 11:28:03;;;;;;;;;11.50;11.50;;;;;31.31;29.33;99200.22;5051272;28;45364;-53
2022/08/10 11:30:54;;;;;;;;;9.25;9.25;;;;;31.42;29.21;99203.28;5049628;28;48093;-53
2022/08/10 11:33:34;;;;;;;;;10.75;10.00;;;;;31.50;28.36;99205.91;5052041;28;45510;-56
2022/08/10 11:36:02;;;;;;;;;8.50;8.50;;;;;31.62;28.36;99198.06;5038747;28;45433;-57
2022/08/10 11:38:42;;;;;;;;;9.00;8.00;;;;;31.69;27.27;99195.41;5048448;28;45303;-54
2022/08/10 11:41:36;;;;;;;;;10.00;10.00;;;;;31.80;26.81;99200.34;5044600;28;46453;-54
2022/08/10 11:44:11;;;;;;;;;9.25;9.25;;;;;31.86;27.50;99191.38;5050219;28;45512;-64
2022/08/10 11:46:46;;;;;;;;;10.25;8.00;;;;;31.92;26.84;99196.91;5053219;28;45510;-66